Terminal Aerodrome Forecast
Issued by NWS

Home | Current Version | Previous Version | Text Only | Print | Product List | Glossary Off
Versions: 1 2 3 4 5 6 7 8 9 10 11 12 13 14 15 16 17 18 19 20 21 22 23 24

757
FTUS45 KGGW 191131
TAFGDV
TAF
KGDV 191131Z 1912/2012 27008KT P6SM -SHRA OVC060
     FM191500 29014KT P6SM VCSH BKN050
     FM191800 28016G24KT P6SM BKN090
     FM200000 28012KT P6SM BKN080
     FM200300 26007KT P6SM SCT090=

USA.gov is the U.S. government's official web portal to all federal, state and local government web resources and services.